createdAt,value
2018-09-14T00:00:45.674Z,18.37
2018-09-14T00:03:13.903Z,17.60
2018-09-14T00:05:42.122Z,16.83
2018-09-14T00:08:10.334Z,18.03
2018-09-14T00:10:38.566Z,22.60
2018-09-14T00:13:06.938Z,16.43
2018-09-14T00:15:35.169Z,18.13
2018-09-14T00:18:03.385Z,18.37
2018-09-14T00:20:31.610Z,19.33
2018-09-14T00:22:59.834Z,19.50
2018-09-14T00:25:28.051Z,18.67
2018-09-14T00:27:56.260Z,16.60
2018-09-14T00:30:24.506Z,16.13
2018-09-14T00:32:52.713Z,17.73
2018-09-14T00:35:20.942Z,17.53
2018-09-14T00:37:49.166Z,18.60
2018-09-14T00:40:17.369Z,19.27
2018-09-14T00:42:45.584Z,20.17
2018-09-14T00:45:13.797Z,20.73
2018-09-14T00:47:42.086Z,19.30
2018-09-14T00:50:10.312Z,17.77
2018-09-14T00:52:38.545Z,17.90
2018-09-14T00:55:06.821Z,19.37
2018-09-14T00:57:35.042Z,19.80
2018-09-14T01:00:03.413Z,20.23
2018-09-14T01:02:31.630Z,20.63
2018-09-14T01:04:59.878Z,22.90
2018-09-14T01:07:28.102Z,20.20
2018-09-14T01:09:56.313Z,21.03
2018-09-14T01:12:24.531Z,26.10
2018-09-14T01:14:52.756Z,26.27
2018-09-14T01:17:21.042Z,20.57
2018-09-14T01:19:49.211Z,24.17
2018-09-14T01:22:17.424Z,24.67
2018-09-14T01:24:45.677Z,24.07
2018-09-14T01:27:13.921Z,24.03
2018-09-14T01:29:42.157Z,28.20
2018-09-14T01:32:10.365Z,25.17
2018-09-14T01:34:39.647Z,27.70
2018-09-14T01:37:07.889Z,28.63
2018-09-14T01:39:36.474Z,27.40
2018-09-14T01:42:04.705Z,23.73
2018-09-14T01:44:32.916Z,27.67
2018-09-14T01:47:01.166Z,26.17
2018-09-14T01:49:29.393Z,28.57
2018-09-14T01:51:57.635Z,25.47
2018-09-14T01:54:25.906Z,30.73
2018-09-14T01:56:54.114Z,28.90
2018-09-14T01:59:22.338Z,30.53
2018-09-14T02:01:50.597Z,27.30
2018-09-14T02:04:18.829Z,27.47
2018-09-14T02:06:47.094Z,28.33
2018-09-14T02:09:15.316Z,31.40
2018-09-14T02:11:43.528Z,30.43
2018-09-14T02:14:11.745Z,31.17
2018-09-14T02:16:39.968Z,27.97
2018-09-14T02:19:08.192Z,29.80
2018-09-14T02:21:36.421Z,30.50
2018-09-14T02:24:04.667Z,31.83
2018-09-14T02:26:32.889Z,27.27
2018-09-14T02:29:01.103Z,24.53
2018-09-14T02:31:29.342Z,31.60
2018-09-14T02:33:57.546Z,25.37
2018-09-14T02:36:25.792Z,26.20
2018-09-14T02:38:54.018Z,26.93
2018-09-14T02:41:22.225Z,26.43
2018-09-14T02:43:50.450Z,27.87
2018-09-14T02:46:18.689Z,28.93
2018-09-14T02:48:46.906Z,28.70
2018-09-14T02:51:15.135Z,27.20
2018-09-14T02:53:43.373Z,27.57
2018-09-14T02:56:11.603Z,27.53
2018-09-14T02:58:39.806Z,29.43
2018-09-14T03:01:08.053Z,26.27
2018-09-14T03:03:36.270Z,26.77
2018-09-14T03:06:04.517Z,28.20
2018-09-14T03:08:32.752Z,26.43
2018-09-14T03:11:00.953Z,28.20
2018-09-14T03:13:29.186Z,25.50
2018-09-14T03:15:57.409Z,27.60
2018-09-14T03:18:25.649Z,24.97
2018-09-14T03:20:53.858Z,28.20
2018-09-14T03:23:22.097Z,27.07
2018-09-14T03:25:50.310Z,26.90
2018-09-14T03:28:18.550Z,26.63
2018-09-14T03:30:46.778Z,30.63
2018-09-14T03:33:15.005Z,29.00
2018-09-14T03:35:43.230Z,28.30
2018-09-14T03:38:11.467Z,23.93
2018-09-14T03:40:39.686Z,29.50
2018-09-14T03:43:07.934Z,25.63
2018-09-14T03:45:36.154Z,26.47
2018-09-14T03:48:04.394Z,26.83
2018-09-14T03:50:32.618Z,28.37
2018-09-14T03:53:00.844Z,28.47
2018-09-14T03:55:29.065Z,25.97
2018-09-14T03:57:57.297Z,24.23
2018-09-14T04:00:25.513Z,29.43
2018-09-14T04:02:53.738Z,33.63
2018-09-14T04:05:21.969Z,30.40
2018-09-14T04:07:50.208Z,35.43
2018-09-14T04:10:18.429Z,31.00
2018-09-14T04:12:46.663Z,28.77
2018-09-14T04:15:14.903Z,29.00
2018-09-14T04:17:43.140Z,34.37
2018-09-14T04:20:11.366Z,30.03
2018-09-14T04:22:39.594Z,27.07
2018-09-14T04:25:07.820Z,28.17
2018-09-14T04:27:36.037Z,28.97
2018-09-14T04:30:04.416Z,29.23
2018-09-14T04:32:32.654Z,29.10
2018-09-14T04:35:00.881Z,30.07
2018-09-14T04:37:29.095Z,32.57
2018-09-14T04:39:57.335Z,28.63
2018-09-14T04:42:25.571Z,29.10
2018-09-14T04:44:53.787Z,29.13
2018-09-14T04:47:22.008Z,31.10
2018-09-14T04:49:50.482Z,28.00
2018-09-14T04:52:18.676Z,29.90
2018-09-14T04:54:46.946Z,28.97
2018-09-14T04:57:15.217Z,27.97
2018-09-14T04:59:43.386Z,29.03
2018-09-14T05:02:11.621Z,33.17
2018-09-14T05:04:39.865Z,29.47
2018-09-14T05:07:08.177Z,26.70
2018-09-14T05:09:36.409Z,30.27
2018-09-14T05:12:05.056Z,29.17
2018-09-14T05:14:33.263Z,28.90
2018-09-14T05:17:01.496Z,26.87
2018-09-14T05:19:29.767Z,27.50
2018-09-14T05:21:57.937Z,30.27
2018-09-14T05:24:26.178Z,28.57
2018-09-14T05:26:54.402Z,27.97
2018-09-14T05:29:22.702Z,31.33
2018-09-14T05:31:51.256Z,28.70
2018-09-14T05:34:19.479Z,28.10
2018-09-14T05:36:47.704Z,29.63
2018-09-14T05:39:15.914Z,25.73
2018-09-14T05:41:44.143Z,27.40
2018-09-14T05:44:12.366Z,29.17
2018-09-14T05:46:40.621Z,29.87
2018-09-14T05:49:08.838Z,27.10
2018-09-14T05:51:37.046Z,26.67
2018-09-14T05:54:05.289Z,27.87
2018-09-14T05:56:33.501Z,26.90
2018-09-14T05:59:01.767Z,29.23
2018-09-14T06:01:30.001Z,34.03
2018-09-14T06:03:58.234Z,27.43
2018-09-14T06:06:26.460Z,30.77
2018-09-14T06:08:54.670Z,29.37
2018-09-14T06:11:22.922Z,30.37
2018-09-14T06:13:51.184Z,30.60
2018-09-14T06:16:19.405Z,27.03
2018-09-14T06:18:47.807Z,31.63
2018-09-14T06:21:16.009Z,31.57
2018-09-14T06:23:44.245Z,30.40
2018-09-14T06:26:12.459Z,31.80
2018-09-14T06:28:40.677Z,29.40
2018-09-14T06:31:08.893Z,30.20
2018-09-14T06:33:37.120Z,32.40
2018-09-14T06:36:05.352Z,34.20
2018-09-14T06:38:33.566Z,37.43
2018-09-14T06:41:01.785Z,31.93
2018-09-14T06:43:30.038Z,37.33
2018-09-14T06:45:58.269Z,36.77
2018-09-14T06:48:26.473Z,39.03
2018-09-14T06:50:54.695Z,40.63
2018-09-14T06:53:22.947Z,38.53
2018-09-14T06:55:51.151Z,34.77
2018-09-14T06:58:19.386Z,35.30
2018-09-14T07:00:47.600Z,39.73
2018-09-14T07:03:15.824Z,37.37
2018-09-14T07:05:44.051Z,36.83
2018-09-14T07:08:12.275Z,35.07
2018-09-14T07:10:40.480Z,39.07
2018-09-14T07:13:08.766Z,35.93
2018-09-14T07:15:37.727Z,34.97
2018-09-14T07:18:05.973Z,37.13
2018-09-14T07:20:34.204Z,36.53
2018-09-14T07:23:02.421Z,35.67
2018-09-14T07:25:30.672Z,35.77
2018-09-14T07:27:58.873Z,40.90
2018-09-14T07:30:27.077Z,38.40
2018-09-14T07:32:55.289Z,35.87
2018-09-14T07:35:23.513Z,36.87
2018-09-14T07:37:51.755Z,41.17
2018-09-14T07:40:20.000Z,39.93
2018-09-14T07:42:48.241Z,37.33
2018-09-14T07:45:16.524Z,35.40
2018-09-14T07:47:44.746Z,34.60
2018-09-14T07:50:12.966Z,34.97
2018-09-14T07:52:41.185Z,40.37
2018-09-14T07:55:09.403Z,36.07
2018-09-14T07:57:37.628Z,36.00
2018-09-14T08:00:05.971Z,37.03
2018-09-14T08:02:34.177Z,36.17
2018-09-14T08:05:02.406Z,38.87
2018-09-14T08:07:30.728Z,34.80
2018-09-14T08:09:58.919Z,35.67
2018-09-14T08:12:27.131Z,37.87
2018-09-14T08:14:55.350Z,32.53
2018-09-14T08:17:23.597Z,36.07
2018-09-14T08:19:51.805Z,35.53
2018-09-14T08:22:20.021Z,39.77
2018-09-14T08:24:48.237Z,33.00
2018-09-14T08:27:16.582Z,36.33
2018-09-14T08:29:44.696Z,30.23
2018-09-14T08:32:12.982Z,32.43
2018-09-14T08:34:41.158Z,32.73
2018-09-14T08:37:09.374Z,32.97
2018-09-14T08:39:37.590Z,31.13
2018-09-14T08:42:05.990Z,31.77
2018-09-14T08:44:34.222Z,30.77
2018-09-14T08:47:02.428Z,28.67
2018-09-14T08:49:30.668Z,27.97
2018-09-14T08:51:58.894Z,31.97
2018-09-14T08:54:27.108Z,27.87
2018-09-14T08:56:55.337Z,27.93
2018-09-14T08:59:23.562Z,29.00
2018-09-14T09:01:51.820Z,28.87
2018-09-14T09:04:20.038Z,25.27
2018-09-14T09:06:48.282Z,24.73
2018-09-14T09:09:16.555Z,25.67
2018-09-14T09:11:44.741Z,24.37
2018-09-14T09:14:12.958Z,29.27
2018-09-14T09:16:41.184Z,25.17
2018-09-14T09:19:09.761Z,26.10
2018-09-14T09:21:37.976Z,23.37
2018-09-14T09:24:06.212Z,20.90
2018-09-14T09:26:34.434Z,18.70
2018-09-14T09:29:02.652Z,17.47
2018-09-14T09:31:30.878Z,21.47
2018-09-14T09:33:59.099Z,19.17
2018-09-14T09:36:27.328Z,18.43
2018-09-14T09:38:55.744Z,18.70
2018-09-14T09:41:23.993Z,17.00
2018-09-14T09:43:52.329Z,17.53
2018-09-14T09:46:20.503Z,18.60
2018-09-14T09:48:49.078Z,14.87
2018-09-14T09:51:17.436Z,14.70
2018-09-14T09:53:45.612Z,12.03
2018-09-14T09:56:13.811Z,14.43
2018-09-14T09:58:42.065Z,13.80
2018-09-14T10:01:15.575Z,16.33
2018-09-14T10:03:48.936Z,18.07
2018-09-14T10:06:22.354Z,16.60
2018-09-14T10:08:50.575Z,16.13
2018-09-14T10:11:18.801Z,15.07
2018-09-14T10:13:47.346Z,16.13
2018-09-14T10:16:15.562Z,16.67
2018-09-14T10:18:43.837Z,14.30
2018-09-14T10:21:12.167Z,17.00
2018-09-14T10:23:40.278Z,16.27
2018-09-14T10:26:08.534Z,12.83
2018-09-14T10:28:36.843Z,14.80
2018-09-14T10:31:05.099Z,14.63
2018-09-14T10:33:34.334Z,15.37
2018-09-14T10:36:02.776Z,16.47
2018-09-14T10:38:31.019Z,16.73
2018-09-14T10:41:03.015Z,16.00
2018-09-14T10:43:31.873Z,14.70
2018-09-14T10:46:00.103Z,15.10
2018-09-14T10:48:28.358Z,18.43
2018-09-14T10:50:56.668Z,16.40
2018-09-14T10:53:24.930Z,17.03
2018-09-14T10:55:54.153Z,16.33
2018-09-14T10:58:22.370Z,15.90
2018-09-14T11:00:50.632Z,16.87
2018-09-14T11:03:18.912Z,18.60
2018-09-14T11:05:47.165Z,18.20
2018-09-14T11:08:15.402Z,16.10
2018-09-14T11:10:43.699Z,15.13
2018-09-14T11:13:11.908Z,13.17
2018-09-14T11:15:40.149Z,16.80
2018-09-14T11:18:08.386Z,15.17
2018-09-14T11:20:36.642Z,12.33
2018-09-14T11:23:04.843Z,17.13
2018-09-14T11:25:33.094Z,16.03
2018-09-14T11:28:01.363Z,18.50
2018-09-14T11:30:29.494Z,15.43
2018-09-14T11:32:57.772Z,16.67
2018-09-14T11:35:25.977Z,15.67
2018-09-14T11:37:54.279Z,16.20
2018-09-14T11:40:22.418Z,18.43
2018-09-14T11:42:50.734Z,17.10
2018-09-14T11:45:19.129Z,20.83
2018-09-14T11:47:47.302Z,20.00
2018-09-14T11:50:16.662Z,19.20
2018-09-14T11:52:44.894Z,17.80
2018-09-14T11:55:15.133Z,20.30
2018-09-14T11:57:43.447Z,20.77
2018-09-14T12:00:12.772Z,18.97
2018-09-14T12:02:41.040Z,16.90
2018-09-14T12:05:09.332Z,17.00
2018-09-14T12:07:38.173Z,16.40
2018-09-14T12:10:07.078Z,14.77
2018-09-14T12:12:37.353Z,16.83
2018-09-14T12:15:05.624Z,16.17
2018-09-14T12:17:33.835Z,15.13
2018-09-14T12:20:02.064Z,16.13
2018-09-14T12:22:30.301Z,14.80
2018-09-14T12:24:58.509Z,17.00
2018-09-14T12:27:26.770Z,14.27
2018-09-14T12:29:54.981Z,18.80
2018-09-14T12:32:23.225Z,19.40
2018-09-14T12:34:51.445Z,16.83
2018-09-14T12:37:19.676Z,16.17
2018-09-14T12:39:47.875Z,17.70
2018-09-14T12:42:16.103Z,19.27
2018-09-14T12:44:44.381Z,18.37
2018-09-14T12:47:12.681Z,17.73
2018-09-14T12:49:40.901Z,20.40
2018-09-14T12:52:09.109Z,16.43
2018-09-14T12:54:37.427Z,17.80
2018-09-14T12:57:05.664Z,14.80
2018-09-14T12:59:33.878Z,13.23
2018-09-14T13:02:02.107Z,14.50
2018-09-14T13:04:30.341Z,12.07
2018-09-14T13:06:58.548Z,11.57
2018-09-14T13:09:26.758Z,13.60
2018-09-14T13:11:55.062Z,15.17
2018-09-14T13:14:24.173Z,14.23
2018-09-14T13:16:52.613Z,13.70
2018-09-14T13:19:21.438Z,16.00
2018-09-14T13:21:49.663Z,14.37
2018-09-14T13:24:17.922Z,16.43
2018-09-14T13:26:46.105Z,16.83
2018-09-14T13:29:14.306Z,15.70
2018-09-14T13:31:42.538Z,17.07
2018-09-14T13:34:10.798Z,15.53
2018-09-14T13:36:39.094Z,18.13
2018-09-14T13:39:08.460Z,13.10
2018-09-14T13:41:36.724Z,15.37
2018-09-14T13:44:06.253Z,15.27
2018-09-14T13:46:34.492Z,14.63
2018-09-14T13:49:02.781Z,12.93
2018-09-14T13:51:31.056Z,12.33
2018-09-14T13:53:59.277Z,17.73
2018-09-14T13:56:27.584Z,14.60
2018-09-14T13:58:55.814Z,16.07
2018-09-14T14:01:24.107Z,12.87
2018-09-14T14:03:52.254Z,12.97
2018-09-14T14:06:20.478Z,11.30
2018-09-14T14:08:48.820Z,11.70
2018-09-14T14:11:17.169Z,10.43
2018-09-14T14:13:45.407Z,13.13
2018-09-14T14:16:13.626Z,11.47
2018-09-14T14:18:41.895Z,12.43
2018-09-14T14:21:10.134Z,9.90
2018-09-14T14:23:38.314Z,8.83
2018-09-14T14:26:06.571Z,9.77
2018-09-14T14:28:34.797Z,10.13
2018-09-14T14:31:03.094Z,12.47
2018-09-14T14:33:31.309Z,10.10
2018-09-14T14:35:59.552Z,8.47
2018-09-14T14:38:27.763Z,10.77
2018-09-14T14:40:55.969Z,9.70
2018-09-14T14:43:24.190Z,9.90
2018-09-14T14:45:52.481Z,8.20
2018-09-14T14:48:20.705Z,12.87
2018-09-14T14:50:48.918Z,8.87
2018-09-14T14:53:17.138Z,7.03
2018-09-14T14:55:45.378Z,8.93
2018-09-14T14:58:13.595Z,7.40
2018-09-14T15:00:41.797Z,10.00
2018-09-14T15:03:10.016Z,8.57
2018-09-14T15:05:38.230Z,10.30
2018-09-14T15:08:06.490Z,8.30
2018-09-14T15:10:34.760Z,9.33
2018-09-14T15:13:02.923Z,7.47
2018-09-14T15:15:31.121Z,9.13
2018-09-14T15:17:59.342Z,8.27
2018-09-14T15:20:27.545Z,7.33
2018-09-14T15:22:55.757Z,7.03
2018-09-14T15:25:23.977Z,10.97
2018-09-14T15:27:52.194Z,6.43
2018-09-14T15:30:20.438Z,6.13
2018-09-14T15:32:48.652Z,9.33
2018-09-14T15:35:16.906Z,5.77
2018-09-14T15:37:45.134Z,8.07
2018-09-14T15:40:13.382Z,10.00
2018-09-14T15:42:41.614Z,7.43
2018-09-14T15:45:09.870Z,8.50
2018-09-14T15:47:38.105Z,9.47
2018-09-14T15:50:06.378Z,9.07
2018-09-14T15:52:34.589Z,10.80
2018-09-14T15:55:02.842Z,6.27
2018-09-14T15:57:31.056Z,6.43
2018-09-14T15:59:59.293Z,6.23
2018-09-14T16:02:28.549Z,6.60
2018-09-14T16:04:56.765Z,6.30
2018-09-14T16:07:24.966Z,6.10
2018-09-14T16:09:53.194Z,7.83
2018-09-14T16:12:21.401Z,4.50
2018-09-14T16:14:49.614Z,7.30
2018-09-14T16:17:17.848Z,7.83
2018-09-14T16:19:46.066Z,7.23
2018-09-14T16:22:14.285Z,7.07
2018-09-14T16:24:42.490Z,9.50
2018-09-14T16:27:10.706Z,7.83
2018-09-14T16:29:38.945Z,10.20
2018-09-14T16:32:07.209Z,5.30
2018-09-14T16:34:35.425Z,8.83
2018-09-14T16:37:03.673Z,10.40
2018-09-14T16:39:31.898Z,7.90
2018-09-14T16:42:00.116Z,8.23
2018-09-14T16:44:28.351Z,7.07
2018-09-14T16:46:56.552Z,8.57
2018-09-14T16:49:24.814Z,8.93
2018-09-14T16:51:53.043Z,9.93
2018-09-14T16:54:21.262Z,11.93
2018-09-14T16:56:49.506Z,12.47
2018-09-14T16:59:17.729Z,9.90
2018-09-14T17:01:45.958Z,6.73
2018-09-14T17:04:14.185Z,10.57
2018-09-14T17:06:42.430Z,12.23
2018-09-14T17:09:10.709Z,10.70
2018-09-14T17:11:38.968Z,8.90
2018-09-14T17:14:07.981Z,8.83
2018-09-14T17:16:36.285Z,7.43
2018-09-14T17:19:04.527Z,10.63
2018-09-14T17:21:32.802Z,8.53
2018-09-14T17:24:00.963Z,10.10
2018-09-14T17:26:29.192Z,8.90
2018-09-14T17:28:57.403Z,6.40
2018-09-14T17:31:25.670Z,7.70
2018-09-14T17:33:53.890Z,7.20
2018-09-14T17:36:22.118Z,13.17
2018-09-14T17:38:50.344Z,14.37
2018-09-14T17:41:18.577Z,9.60
2018-09-14T17:43:47.133Z,7.87
2018-09-14T17:46:15.366Z,6.90
2018-09-14T17:48:43.590Z,7.50
2018-09-14T17:51:11.850Z,8.57
2018-09-14T17:53:40.057Z,37.63
2018-09-14T17:56:08.448Z,9.50
2018-09-14T17:58:36.691Z,10.07
2018-09-14T18:01:04.973Z,6.87
2018-09-14T18:03:33.268Z,9.93
2018-09-14T18:06:01.561Z,10.53
2018-09-14T18:08:29.805Z,7.40
2018-09-14T18:10:58.038Z,9.87
2018-09-14T18:13:27.086Z,11.53
2018-09-14T18:15:55.919Z,12.40
2018-09-14T18:18:26.197Z,19.13
2018-09-14T18:20:54.497Z,15.63
2018-09-14T18:23:22.733Z,15.77
2018-09-14T18:25:51.062Z,11.10
2018-09-14T18:28:19.289Z,9.73
2018-09-14T18:30:47.548Z,10.30
2018-09-14T18:33:15.801Z,9.80
2018-09-14T18:35:44.091Z,10.77
2018-09-14T18:38:12.236Z,8.87
2018-09-14T18:40:40.464Z,10.50
2018-09-14T18:43:08.769Z,7.70
2018-09-14T18:45:37.025Z,9.63
2018-09-14T18:48:05.331Z,9.77
2018-09-14T18:50:33.562Z,8.43
2018-09-14T18:53:01.806Z,10.60
2018-09-14T18:55:30.027Z,9.37
2018-09-14T18:57:58.273Z,10.03
2018-09-14T19:00:27.249Z,7.90
2018-09-14T19:02:55.609Z,8.80
2018-09-14T19:05:23.908Z,8.03
2018-09-14T19:07:52.142Z,7.63
2018-09-14T19:10:20.381Z,7.27
2018-09-14T19:12:48.625Z,10.67
2018-09-14T19:15:16.884Z,6.23
2018-09-14T19:17:45.155Z,7.73
2018-09-14T19:20:13.385Z,6.63
2018-09-14T19:22:41.626Z,5.73
2018-09-14T19:25:09.873Z,8.90
2018-09-14T19:27:38.103Z,9.67
2018-09-14T19:30:06.323Z,6.40
2018-09-14T19:32:34.555Z,6.33
2018-09-14T19:35:02.837Z,6.07
2018-09-14T19:37:31.047Z,8.37
2018-09-14T19:39:59.317Z,7.73
2018-09-14T19:42:27.551Z,7.67
2018-09-14T19:44:55.809Z,9.60
2018-09-14T19:47:24.122Z,7.43
2018-09-14T19:49:52.346Z,7.77
2018-09-14T19:52:20.573Z,5.93
2018-09-14T19:54:48.802Z,8.53
2018-09-14T19:57:17.041Z,7.30
2018-09-14T19:59:45.229Z,9.03
2018-09-14T20:02:13.466Z,8.30
2018-09-14T20:04:41.674Z,8.30
2018-09-14T20:07:09.917Z,9.87
2018-09-14T20:09:39.232Z,11.00
2018-09-14T20:12:07.481Z,9.40
2018-09-14T20:14:35.709Z,10.17
2018-09-14T20:17:03.936Z,14.00
2018-09-14T20:19:33.035Z,5.37
2018-09-14T20:22:01.263Z,6.27
2018-09-14T20:24:29.497Z,8.23
2018-09-14T20:26:57.719Z,10.10
2018-09-14T20:29:25.970Z,7.50
2018-09-14T20:31:54.185Z,10.27
2018-09-14T20:34:22.397Z,5.93
2018-09-14T20:36:53.962Z,5.97
2018-09-14T20:39:22.181Z,8.83
2018-09-14T20:41:50.417Z,9.13
2018-09-14T20:44:18.677Z,8.83
2018-09-14T20:46:47.056Z,7.00
2018-09-14T20:49:15.285Z,9.17
2018-09-14T20:51:45.598Z,5.60
2018-09-14T20:54:13.771Z,7.77
2018-09-14T20:56:41.998Z,5.40
2018-09-14T20:59:11.210Z,6.47
2018-09-14T21:01:39.421Z,5.87
2018-09-14T21:04:07.710Z,5.23
2018-09-14T21:06:35.990Z,7.17
2018-09-14T21:09:06.170Z,5.27
2018-09-14T21:11:34.760Z,5.70
2018-09-14T21:14:05.311Z,6.27
2018-09-14T21:16:33.806Z,5.97
2018-09-14T21:19:02.129Z,5.83
2018-09-14T21:21:30.370Z,6.87
2018-09-14T21:23:58.645Z,9.20
2018-09-14T21:26:26.867Z,7.30
2018-09-14T21:28:56.225Z,5.93
2018-09-14T21:31:24.470Z,5.30
2018-09-14T21:33:52.758Z,5.53
2018-09-14T21:36:21.010Z,8.47
2018-09-14T21:38:49.223Z,6.63
2018-09-14T21:41:17.562Z,6.53
2018-09-14T21:43:45.819Z,7.33
2018-09-14T21:46:14.032Z,5.73
2018-09-14T21:48:42.237Z,9.87
2018-09-14T21:51:10.464Z,6.83
2018-09-14T21:53:38.729Z,7.23
2018-09-14T21:56:06.926Z,5.23
2018-09-14T21:58:35.146Z,5.93
2018-09-14T22:01:10.563Z,8.73
2018-09-14T22:03:38.910Z,9.07
2018-09-14T22:06:07.365Z,10.83
2018-09-14T22:08:35.578Z,6.50
2018-09-14T22:11:03.814Z,7.53
2018-09-14T22:13:32.033Z,6.43
2018-09-14T22:16:00.256Z,6.67
2018-09-14T22:18:28.489Z,8.80
2018-09-14T22:20:56.706Z,10.77
2018-09-14T22:23:24.950Z,7.47
2018-09-14T22:25:53.157Z,8.83
2018-09-14T22:28:21.386Z,10.63
2018-09-14T22:30:49.631Z,10.30
2018-09-14T22:33:17.857Z,8.67
2018-09-14T22:35:46.146Z,9.80
2018-09-14T22:38:14.397Z,6.43
2018-09-14T22:40:42.619Z,7.30
2018-09-14T22:43:10.829Z,5.63
2018-09-14T22:45:39.065Z,7.23
2018-09-14T22:48:08.417Z,11.37
2018-09-14T22:50:36.981Z,6.87
2018-09-14T22:53:05.185Z,10.63
2018-09-14T22:55:33.414Z,8.47
2018-09-14T22:58:01.630Z,8.47
2018-09-14T23:00:35.106Z,8.57
2018-09-14T23:03:04.442Z,6.57
2018-09-14T23:05:33.894Z,7.83
2018-09-14T23:08:02.108Z,8.93
2018-09-14T23:10:30.446Z,10.67
2018-09-14T23:13:00.437Z,10.27
2018-09-14T23:15:28.641Z,8.13
2018-09-14T23:17:57.221Z,8.77
2018-09-14T23:20:28.885Z,7.20
2018-09-14T23:57:14.638Z,6.97
2018-09-14T23:59:42.858Z,8.37
